Time;durP1;ratioP1;P1;durP2;ratioP2;P2;SDS_P1;SDS_P2;PMS_P1;PMS_P2;Temp;Humidity;BMP_temperature;BMP_pressure;BME280_temperature;BME280_humidity;BME280_pressure;Samples;Min_cycle;Max_cycle;Signal;HPM_P1;HPM_P2
2022/05/03 00:00:16;;;;;;;0.60;0.50;;;15.10;99.90;;;;;;5060942;28;20518;-64
2022/05/03 00:03:05;;;;;;;0.80;0.40;;;14.90;99.90;;;;;;5052592;28;20459;-64
2022/05/03 00:05:46;;;;;;;1.10;0.87;;;15.10;99.90;;;;;;5064515;28;20459;-63
2022/05/03 00:08:25;;;;;;;2.30;0.73;;;15.30;99.90;;;;;;5062019;28;20500;-64
2022/05/03 00:11:06;;;;;;;1.17;1.03;;;15.50;99.90;;;;;;5055066;28;20472;-64
2022/05/03 00:13:41;;;;;;;0.83;0.70;;;15.40;99.90;;;;;;5050667;28;20474;-63
2022/05/03 00:16:17;;;;;;;1.73;1.00;;;15.30;99.90;;;;;;5053770;28;20490;-64
2022/05/03 00:18:49;;;;;;;0.80;0.70;;;15.50;99.90;;;;;;5062480;28;20470;-64
2022/05/03 00:21:21;;;;;;;0.80;0.80;;;15.80;99.90;;;;;;5062901;28;20463;-63
2022/05/03 00:23:52;;;;;;;2.03;0.90;;;16.00;99.90;;;;;;5062916;28;20439;-63
2022/05/03 00:26:27;;;;;;;0.53;0.50;;;15.70;99.90;;;;;;5061607;28;20475;-64
2022/05/03 00:29:00;;;;;;;1.73;0.70;;;15.20;99.90;;;;;;5063953;28;20506;-64
2022/05/03 00:31:32;;;;;;;0.90;0.70;;;14.80;99.90;;;;;;5061959;28;20805;-63
2022/05/03 00:34:05;;;;;;;0.90;0.70;;;14.50;99.90;;;;;;5063332;28;20551;-64
2022/05/03 00:36:36;;;;;;;0.87;0.87;;;14.40;99.90;;;;;;5064110;28;20550;-64
2022/05/03 00:39:07;;;;;;;2.23;1.10;;;14.40;99.90;;;;;;5062546;28;20507;-63
2022/05/03 00:41:46;;;;;;;0.83;0.70;;;14.10;99.90;;;;;;5060277;28;20475;-66
2022/05/03 00:47:24;;;;;;;0.90;0.80;;;13.90;99.90;;;;;;5057097;28;20498;-65
2022/05/03 00:50:05;;;;;;;1.70;0.90;;;13.20;99.90;;;;;;5062426;28;20468;-64
2022/05/03 00:52:47;;;;;;;0.90;0.90;;;13.00;99.90;;;;;;5062593;28;20926;-66
2022/05/03 00:55:52;;;;;;;1.47;0.90;;;12.90;99.90;;;;;;5059618;28;20456;-64
2022/05/03 00:58:44;;;;;;;1.60;1.20;;;12.80;99.90;;;;;;5054202;28;20466;-66
2022/05/03 01:01:23;;;;;;;1.87;1.40;;;12.90;99.90;;;;;;5063302;28;20464;-64
2022/05/03 01:04:07;;;;;;;1.60;1.50;;;12.90;99.90;;;;;;5062262;28;20933;-66
2022/05/03 01:06:47;;;;;;;2.30;1.73;;;12.80;99.90;;;;;;5062937;28;20452;-67
2022/05/03 01:09:25;;;;;;;2.47;1.57;;;12.90;99.90;;;;;;5062609;28;20932;-64
2022/05/03 01:12:09;;;;;;;1.43;1.10;;;12.80;99.90;;;;;;5062420;28;20470;-64
2022/05/03 01:14:55;;;;;;;2.63;1.50;;;13.00;99.90;;;;;;5063464;28;20484;-66
2022/05/03 01:17:30;;;;;;;2.10;1.90;;;13.00;99.90;;;;;;5060727;28;20456;-66
2022/05/03 01:20:06;;;;;;;1.87;1.67;;;13.00;99.90;;;;;;5060286;28;20957;-65
2022/05/03 01:23:08;;;;;;;3.20;1.77;;;13.00;99.90;;;;;;5061923;28;20452;-64
2022/05/03 01:26:08;;;;;;;2.43;1.80;;;13.00;99.90;;;;;;5060907;28;20516;-67
2022/05/03 01:29:06;;;;;;;1.40;1.20;;;12.80;99.90;;;;;;5039246;28;20503;-64
2022/05/03 01:31:38;;;;;;;3.33;1.50;;;12.80;99.90;;;;;;5062759;28;20519;-64
2022/05/03 01:34:12;;;;;;;2.43;1.70;;;12.80;99.90;;;;;;5062693;28;20483;-64
2022/05/03 01:36:52;;;;;;;2.17;1.67;;;12.70;99.90;;;;;;5062250;28;20474;-64
2022/05/03 01:39:30;;;;;;;3.70;1.20;;;12.80;99.90;;;;;;5059190;28;20464;-64
2022/05/03 01:42:12;;;;;;;2.60;1.27;;;12.70;99.90;;;;;;5062660;28;20432;-65
2022/05/03 01:44:55;;;;;;;2.43;1.43;;;12.60;99.90;;;;;;5060562;28;20460;-65
2022/05/03 01:47:35;;;;;;;2.00;1.67;;;12.60;99.90;;;;;;5063696;28;20456;-64
2022/05/03 01:50:21;;;;;;;2.00;1.80;;;12.60;99.90;;;;;;5061367;28;20488;-64
2022/05/03 01:53:21;;;;;;;2.00;1.43;;;12.60;99.90;;;;;;5061389;28;20877;-64
2022/05/03 01:56:15;;;;;;;1.30;1.20;;;12.60;99.90;;;;;;5061513;28;20455;-65
2022/05/03 01:59:04;;;;;;;4.00;1.60;;;12.60;99.90;;;;;;5062453;28;20456;-64
2022/05/03 02:01:53;;;;;;;1.70;1.17;;;12.50;99.90;;;;;;5058529;28;20456;-64
2022/05/03 02:04:40;;;;;;;1.00;1.00;;;12.40;99.90;;;;;;5047504;28;20468;-64
2022/05/03 02:07:19;;;;;;;1.37;1.23;;;12.40;99.90;;;;;;5061830;28;20475;-63
2022/05/03 02:10:06;;;;;;;1.50;1.20;;;12.40;99.90;;;;;;5060040;28;20504;-63
2022/05/03 02:12:37;;;;;;;1.23;1.10;;;12.30;99.90;;;;;;5061234;28;20456;-63
2022/05/03 02:15:09;;;;;;;1.37;1.27;;;12.30;99.90;;;;;;5061292;28;20484;-63
2022/05/03 02:18:05;;;;;;;1.07;1.00;;;12.20;99.90;;;;;;5060622;28;20466;-62
2022/05/03 02:21:02;;;;;;;2.30;1.50;;;12.20;99.90;;;;;;5061678;28;20468;-63
2022/05/03 02:23:52;;;;;;;1.10;1.00;;;12.30;99.90;;;;;;5061261;28;20480;-64
2022/05/03 02:26:41;;;;;;;1.20;1.00;;;12.30;99.90;;;;;;5058997;28;20457;-64
2022/05/03 02:29:17;;;;;;;1.17;1.00;;;12.10;99.90;;;;;;5061551;28;20480;-63
2022/05/03 02:31:51;;;;;;;1.70;1.50;;;12.10;99.90;;;;;;5050862;28;20448;-64
2022/05/03 02:34:33;;;;;;;2.67;1.00;;;12.10;99.90;;;;;;5061621;28;20452;-63
2022/05/03 02:37:14;;;;;;;1.40;1.30;;;12.10;99.90;;;;;;5061299;28;20471;-63
2022/05/03 02:39:53;;;;;;;1.20;1.10;;;12.20;99.90;;;;;;5059972;28;20604;-63
2022/05/03 02:42:24;;;;;;;2.53;1.20;;;12.20;99.90;;;;;;5061972;28;20452;-64
2022/05/03 02:44:58;;;;;;;3.50;1.30;;;12.10;99.90;;;;;;5060058;28;20469;-64
2022/05/03 02:47:38;;;;;;;1.67;1.10;;;12.10;99.90;;;;;;5061128;28;20456;-64
2022/05/03 02:50:14;;;;;;;1.70;1.20;;;12.10;99.90;;;;;;5060710;28;20487;-64
2022/05/03 02:52:59;;;;;;;1.50;1.40;;;12.10;99.90;;;;;;5060494;28;20467;-64
2022/05/03 02:55:41;;;;;;;1.40;1.30;;;12.00;99.90;;;;;;5059184;28;20475;-64
2022/05/03 02:58:26;;;;;;;1.63;1.40;;;12.00;99.90;;;;;;5065701;28;20468;-64
2022/05/03 03:04:14;;;;;;;3.20;1.77;;;12.00;99.90;;;;;;5055274;28;20464;-64
2022/05/03 03:06:47;;;;;;;1.37;1.27;;;11.90;99.90;;;;;;5065361;28;20484;-64
2022/05/03 03:09:26;;;;;;;1.20;1.10;;;11.90;99.90;;;;;;5064164;28;20947;-63
2022/05/03 03:12:04;;;;;;;1.10;1.00;;;11.90;99.90;;;;;;5058331;28;20460;-65
2022/05/03 03:14:46;;;;;;;1.10;1.00;;;11.90;99.90;;;;;;5063662;28;20483;-64
2022/05/03 03:17:28;;;;;;;1.43;1.33;;;11.80;99.90;;;;;;5064739;28;20460;-64
2022/05/03 03:20:16;;;;;;;1.90;1.20;;;11.80;99.90;;;;;;5050117;28;20478;-64
2022/05/03 03:22:50;;;;;;;1.07;1.03;;;11.80;99.90;;;;;;5063002;28;20482;-64
2022/05/03 03:25:23;;;;;;;1.40;1.30;;;11.80;99.90;;;;;;5062023;28;20470;-64
2022/05/03 03:27:57;;;;;;;2.63;1.63;;;11.70;99.90;;;;;;5051550;28;20448;-64
2022/05/03 03:30:28;;;;;;;1.50;1.40;;;11.70;99.90;;;;;;5063861;28;20498;-64
2022/05/03 03:33:00;;;;;;;1.93;1.63;;;11.60;99.90;;;;;;5063469;28;20471;-64
2022/05/03 03:35:35;;;;;;;2.30;1.97;;;11.60;99.90;;;;;;5062874;28;20464;-63
2022/05/03 03:38:09;;;;;;;1.93;1.83;;;11.60;99.90;;;;;;5061529;28;20603;-64
2022/05/03 03:40:45;;;;;;;2.67;2.37;;;11.70;99.90;;;;;;5064473;28;20464;-63
2022/05/03 03:43:16;;;;;;;2.37;2.03;;;11.70;99.90;;;;;;5061064;28;20494;-64
2022/05/03 03:45:47;;;;;;;2.87;2.67;;;11.70;99.90;;;;;;5064034;28;20478;-64
2022/05/03 03:48:17;;;;;;;2.80;2.60;;;11.70;99.90;;;;;;5064285;28;20523;-63
2022/05/03 03:50:50;;;;;;;3.10;1.93;;;11.80;99.90;;;;;;5062773;28;20507;-64
2022/05/03 03:53:23;;;;;;;2.30;1.90;;;11.70;99.90;;;;;;5061386;28;20456;-64
2022/05/03 03:55:55;;;;;;;4.40;1.87;;;11.70;99.90;;;;;;5061027;28;20464;-64
2022/05/03 03:58:25;;;;;;;3.43;2.60;;;11.70;99.90;;;;;;5056685;28;20472;-64
2022/05/03 04:00:56;;;;;;;1.93;1.83;;;11.70;99.90;;;;;;5060487;28;20531;-64
2022/05/03 04:03:28;;;;;;;2.17;1.97;;;11.70;99.90;;;;;;5063510;28;20471;-64
2022/05/03 04:05:59;;;;;;;2.47;1.90;;;11.70;99.90;;;;;;5063606;28;20468;-64
2022/05/03 04:08:32;;;;;;;2.90;1.90;;;11.70;99.90;;;;;;5061030;28;20902;-64
2022/05/03 04:11:16;;;;;;;2.27;2.17;;;11.70;99.90;;;;;;5059909;28;20524;-64
2022/05/03 04:13:47;;;;;;;2.23;2.03;;;11.60;99.90;;;;;;5062310;28;20464;-64
2022/05/03 04:16:18;;;;;;;2.17;1.97;;;11.70;99.90;;;;;;5061643;28;20502;-64
2022/05/03 04:18:48;;;;;;;1.97;1.77;;;11.60;99.90;;;;;;5062951;28;20460;-64
2022/05/03 04:21:20;;;;;;;2.20;1.77;;;11.70;99.90;;;;;;5056611;28;20869;-64
2022/05/03 04:23:53;;;;;;;3.17;1.80;;;11.60;99.90;;;;;;5061111;28;20457;-64
2022/05/03 04:26:24;;;;;;;2.40;1.80;;;11.70;99.90;;;;;;5063276;28;20453;-64
2022/05/03 04:28:58;;;;;;;1.57;1.47;;;11.70;99.90;;;;;;5058944;28;20555;-64
2022/05/03 04:31:33;;;;;;;2.40;1.40;;;11.70;99.90;;;;;;5060889;28;20488;-63
2022/05/03 04:34:05;;;;;;;3.23;1.47;;;11.70;99.90;;;;;;5062422;28;20484;-64
2022/05/03 04:36:36;;;;;;;2.60;0.97;;;11.60;99.90;;;;;;5063510;28;20468;-64
2022/05/03 04:39:09;;;;;;;1.17;1.00;;;11.60;99.90;;;;;;5061761;28;20479;-64
2022/05/03 04:41:40;;;;;;;2.43;0.90;;;11.60;99.90;;;;;;5059662;28;20472;-64
2022/05/03 04:44:14;;;;;;;1.30;1.20;;;11.50;99.90;;;;;;5062439;28;20456;-63
2022/05/03 04:46:45;;;;;;;3.00;1.00;;;11.40;99.90;;;;;;5063871;28;20460;-64
2022/05/03 04:49:16;;;;;;;2.47;0.80;;;11.40;99.90;;;;;;5063990;28;20448;-64
2022/05/03 04:51:47;;;;;;;1.80;1.30;;;11.30;99.90;;;;;;5061815;28;20579;-64
2022/05/03 04:54:19;;;;;;;1.70;1.00;;;11.30;99.90;;;;;;5062994;28;20459;-63
2022/05/03 04:56:54;;;;;;;1.33;1.00;;;11.40;99.90;;;;;;5063368;28;20452;-64
2022/05/03 04:59:25;;;;;;;1.50;1.30;;;11.30;99.90;;;;;;5065122;28;20524;-63
2022/05/03 05:01:57;;;;;;;2.17;1.60;;;11.20;99.90;;;;;;5063880;28;20448;-64
2022/05/03 05:04:29;;;;;;;4.20;1.20;;;11.30;99.90;;;;;;5063688;28;20462;-64
2022/05/03 05:07:00;;;;;;;1.40;0.73;;;11.20;99.90;;;;;;5063903;28;20452;-64
2022/05/03 05:09:35;;;;;;;2.00;1.10;;;11.20;99.90;;;;;;5061932;28;20479;-64
2022/05/03 05:12:07;;;;;;;1.20;1.10;;;11.20;99.90;;;;;;5061784;28;20464;-64
2022/05/03 05:14:38;;;;;;;1.73;1.20;;;11.10;99.90;;;;;;5062833;28;20502;-64
2022/05/03 05:17:09;;;;;;;1.10;1.10;;;11.10;99.90;;;;;;5061533;28;20491;-64
2022/05/03 05:19:39;;;;;;;2.00;1.10;;;11.10;99.90;;;;;;5058742;28;20471;-64
2022/05/03 05:22:11;;;;;;;1.00;1.00;;;11.10;99.90;;;;;;5060461;28;20529;-64
2022/05/03 05:24:44;;;;;;;3.70;1.53;;;11.00;99.90;;;;;;5061638;28;20532;-64
2022/05/03 05:27:17;;;;;;;1.63;1.10;;;11.00;99.90;;;;;;5062218;28;20963;-64
2022/05/03 05:29:47;;;;;;;4.40;1.20;;;11.00;99.90;;;;;;5061279;28;20480;-64
2022/05/03 05:32:18;;;;;;;1.00;0.93;;;11.00;99.90;;;;;;5061507;28;20472;-64
2022/05/03 05:34:49;;;;;;;3.10;1.20;;;10.90;99.90;;;;;;5062500;28;20458;-64
2022/05/03 05:37:20;;;;;;;1.70;1.07;;;10.90;99.90;;;;;;5062044;28;20456;-64
2022/05/03 05:39:52;;;;;;;1.80;1.30;;;10.90;99.90;;;;;;5059907;28;20464;-64
2022/05/03 05:42:23;;;;;;;2.00;1.50;;;11.00;99.90;;;;;;5062389;28;20474;-64
2022/05/03 05:44:54;;;;;;;1.70;1.60;;;11.00;99.90;;;;;;5060208;28;20478;-64
2022/05/03 05:47:26;;;;;;;2.00;0.87;;;10.90;99.90;;;;;;5061639;28;20468;-64
2022/05/03 05:49:57;;;;;;;4.37;1.80;;;10.90;99.90;;;;;;5062066;28;20516;-64
2022/05/03 05:55:17;;;;;;;1.43;1.13;;;10.90;99.90;;;;;;5060226;28;20461;-63
2022/05/03 05:57:48;;;;;;;1.67;1.27;;;10.90;99.90;;;;;;5060154;28;20468;-63
2022/05/03 06:00:19;;;;;;;1.53;1.20;;;10.90;99.90;;;;;;5061681;28;20479;-63
2022/05/03 06:02:51;;;;;;;2.83;1.00;;;10.90;99.90;;;;;;5061642;28;20494;-62
2022/05/03 06:05:23;;;;;;;1.70;1.33;;;10.80;99.90;;;;;;5062122;28;20841;-63
2022/05/03 06:07:54;;;;;;;2.23;0.93;;;10.80;99.90;;;;;;5061815;28;20468;-63
2022/05/03 06:10:26;;;;;;;1.20;0.73;;;10.90;99.90;;;;;;5059964;28;20460;-63
2022/05/03 06:13:00;;;;;;;1.60;0.87;;;10.90;99.90;;;;;;5061830;28;20479;-64
2022/05/03 06:15:31;;;;;;;2.13;1.00;;;10.90;99.90;;;;;;5060210;28;20975;-63
2022/05/03 06:18:02;;;;;;;1.37;1.27;;;10.90;99.90;;;;;;5060573;28;20460;-63
2022/05/03 06:20:33;;;;;;;2.63;1.13;;;10.80;99.90;;;;;;5061770;28;20452;-63
2022/05/03 06:23:03;;;;;;;2.83;1.07;;;10.90;99.90;;;;;;5061261;28;20464;-63
2022/05/03 06:25:36;;;;;;;3.47;1.10;;;10.80;99.90;;;;;;5060347;28;20498;-63
2022/05/03 06:28:07;;;;;;;3.07;1.30;;;10.90;99.90;;;;;;5058951;28;20475;-63
2022/05/03 06:30:38;;;;;;;1.20;1.10;;;10.90;99.90;;;;;;5047677;28;20821;-63
2022/05/03 06:33:09;;;;;;;1.40;1.30;;;10.80;99.90;;;;;;5061173;28;20475;-63
2022/05/03 06:35:39;;;;;;;1.13;1.03;;;10.90;99.90;;;;;;5060501;28;20540;-63
2022/05/03 06:38:10;;;;;;;2.83;1.30;;;10.80;99.90;;;;;;5060922;28;20453;-63
2022/05/03 06:40:43;;;;;;;1.70;1.07;;;10.70;99.90;;;;;;5059823;28;20464;-62
2022/05/03 06:43:13;;;;;;;1.53;1.10;;;10.80;99.90;;;;;;5061013;28;21268;-63
2022/05/03 06:45:45;;;;;;;1.67;0.77;;;10.80;99.90;;;;;;5061180;28;20924;-63
2022/05/03 06:48:17;;;;;;;1.40;1.10;;;10.60;99.90;;;;;;5059897;28;20448;-64
2022/05/03 06:50:48;;;;;;;3.30;0.70;;;10.60;99.90;;;;;;5061257;28;20456;-63
2022/05/03 06:53:22;;;;;;;1.77;0.60;;;10.60;99.90;;;;;;5058297;28;20471;-63
2022/05/03 06:55:54;;;;;;;1.07;0.70;;;10.60;99.90;;;;;;5060974;28;20526;-63
2022/05/03 06:58:25;;;;;;;2.07;0.50;;;10.60;99.90;;;;;;5057342;28;20473;-63
2022/05/03 07:00:56;;;;;;;0.40;0.40;;;10.60;99.90;;;;;;5059601;28;20948;-63
2022/05/03 07:03:26;;;;;;;1.27;0.70;;;10.60;99.90;;;;;;5057780;28;20452;-63
2022/05/03 07:05:58;;;;;;;2.73;0.80;;;10.60;99.90;;;;;;5061256;28;20451;-64
2022/05/03 07:08:29;;;;;;;4.43;0.80;;;10.70;99.90;;;;;;5055254;28;20468;-63
2022/05/03 07:11:02;;;;;;;0.60;0.60;;;10.60;99.90;;;;;;5059937;28;20510;-62
2022/05/03 07:13:33;;;;;;;1.00;0.47;;;10.50;99.90;;;;;;5061635;28;20892;-63
2022/05/03 07:16:03;;;;;;;1.37;0.70;;;10.50;99.90;;;;;;5059898;28;20492;-62
2022/05/03 07:24:21;;;;;;;1.00;0.73;;;10.60;99.90;;;;;;5035216;28;20584;-62
2022/05/03 07:26:53;;;;;;;1.70;0.53;;;10.60;99.90;;;;;;5028557;28;20472;-62
2022/05/03 07:29:24;;;;;;;0.60;0.60;;;10.50;99.90;;;;;;5038641;28;21109;-64
2022/05/03 07:31:55;;;;;;;2.23;0.90;;;10.60;99.90;;;;;;5038041;28;21003;-63
2022/05/03 07:34:25;;;;;;;0.50;0.43;;;10.60;99.90;;;;;;5036841;28;20680;-63
2022/05/03 07:36:56;;;;;;;0.60;0.60;;;10.50;99.90;;;;;;5037791;28;20462;-63
2022/05/03 07:39:27;;;;;;;1.73;0.60;;;10.50;99.90;;;;;;5037520;28;20475;-63
2022/05/03 07:41:59;;;;;;;0.67;0.40;;;10.50;99.90;;;;;;5039604;28;20464;-63
2022/05/03 07:44:30;;;;;;;0.57;0.57;;;10.50;99.90;;;;;;5042107;28;20536;-63
2022/05/03 07:47:02;;;;;;;1.30;0.50;;;10.50;99.90;;;;;;5039414;28;21126;-63
2022/05/03 07:49:33;;;;;;;1.73;0.50;;;10.40;99.90;;;;;;5031117;28;20453;-63
2022/05/03 07:52:04;;;;;;;1.60;0.83;;;10.40;99.90;;;;;;5041015;28;20489;-64
2022/05/03 07:54:35;;;;;;;0.60;0.57;;;10.30;99.90;;;;;;5041630;28;20460;-63
2022/05/03 07:57:09;;;;;;;1.37;0.50;;;10.30;99.90;;;;;;5040832;28;20475;-63
2022/05/03 07:59:40;;;;;;;1.23;0.70;;;10.30;99.90;;;;;;5059289;28;20466;-63
2022/05/03 08:02:11;;;;;;;2.63;0.53;;;10.30;99.90;;;;;;5062224;28;20456;-63
2022/05/03 08:04:43;;;;;;;0.70;0.53;;;10.30;99.90;;;;;;5063592;28;20465;-63
2022/05/03 08:07:14;;;;;;;0.60;0.43;;;10.30;99.90;;;;;;5064581;28;20463;-63
2022/05/03 08:09:45;;;;;;;0.77;0.53;;;10.30;99.90;;;;;;5061970;28;20471;-63
2022/05/03 08:12:18;;;;;;;1.23;0.50;;;10.30;99.90;;;;;;5063107;28;20525;-63
2022/05/03 08:14:49;;;;;;;1.40;0.50;;;10.20;99.90;;;;;;5063419;28;20488;-62
2022/05/03 08:17:20;;;;;;;1.37;0.80;;;10.20;99.90;;;;;;5064147;28;20472;-63
2022/05/03 08:19:51;;;;;;;0.50;0.50;;;10.20;99.90;;;;;;5063306;28;20466;-64
2022/05/03 08:22:22;;;;;;;1.60;0.57;;;10.30;99.90;;;;;;5063796;28;20486;-64
2022/05/03 08:24:53;;;;;;;1.17;0.60;;;10.30;99.90;;;;;;5062665;28;20476;-64
2022/05/03 08:27:26;;;;;;;2.63;0.77;;;10.30;99.90;;;;;;5063052;28;20471;-64
2022/05/03 08:29:56;;;;;;;1.73;0.87;;;10.30;99.90;;;;;;5062934;28;20468;-64
2022/05/03 08:32:27;;;;;;;1.33;0.60;;;10.20;99.90;;;;;;5062790;28;20503;-64
2022/05/03 08:34:58;;;;;;;1.00;0.60;;;10.10;99.90;;;;;;5062505;28;20448;-64
2022/05/03 08:43:10;;;;;;;0.80;0.60;;;10.00;99.90;;;;;;5063292;28;20475;-64
2022/05/03 08:45:45;;;;;;;2.10;0.57;;;10.00;99.90;;;;;;5063555;28;20743;-64
2022/05/03 08:48:18;;;;;;;2.67;0.70;;;9.90;99.90;;;;;;5055739;28;20472;-64
2022/05/03 08:50:50;;;;;;;0.80;0.50;;;9.90;99.90;;;;;;5062885;28;20468;-64
2022/05/03 08:53:22;;;;;;;0.53;0.53;;;9.80;99.90;;;;;;5054831;28;20488;-64
2022/05/03 08:55:54;;;;;;;0.83;0.60;;;9.90;99.90;;;;;;5062914;28;20842;-63
2022/05/03 08:58:27;;;;;;;1.73;0.50;;;9.90;99.90;;;;;;5062894;28;20990;-63
2022/05/03 09:00:58;;;;;;;1.03;0.57;;;9.90;99.90;;;;;;5063235;28;20482;-63
2022/05/03 09:03:29;;;;;;;0.80;0.60;;;10.00;99.90;;;;;;5062561;28;20872;-64
2022/05/03 09:06:00;;;;;;;1.37;0.63;;;10.00;99.90;;;;;;5055492;28;20478;-64
2022/05/03 09:08:30;;;;;;;1.83;1.13;;;10.00;99.90;;;;;;5061705;28;20472;-63
2022/05/03 09:11:01;;;;;;;1.27;0.80;;;9.90;99.90;;;;;;5063535;28;20792;-63
2022/05/03 09:13:44;;;;;;;0.93;0.60;;;10.00;99.90;;;;;;5062766;28;20524;-63
2022/05/03 09:16:17;;;;;;;1.30;0.50;;;9.90;99.90;;;;;;5062156;28;20488;-63
2022/05/03 09:18:49;;;;;;;1.37;0.50;;;9.90;99.90;;;;;;5062116;28;20539;-64
2022/05/03 09:24:13;;;;;;;2.30;1.00;;;9.90;99.90;;;;;;5055090;28;20906;-64
2022/05/03 09:26:44;;;;;;;0.83;0.60;;;9.80;99.90;;;;;;5062862;28;20877;-64
2022/05/03 09:29:17;;;;;;;2.33;0.70;;;9.80;99.90;;;;;;5061783;28;20471;-64
2022/05/03 09:31:50;;;;;;;1.33;0.70;;;9.90;99.90;;;;;;5059654;28;20469;-64
2022/05/03 09:34:25;;;;;;;0.93;0.50;;;9.90;99.90;;;;;;5062551;28;20468;-64
2022/05/03 09:36:58;;;;;;;0.80;0.40;;;9.80;99.90;;;;;;5061531;28;20456;-64
2022/05/03 09:39:38;;;;;;;1.53;0.70;;;9.90;99.90;;;;;;5061190;28;20487;-64
2022/05/03 09:42:11;;;;;;;0.57;0.50;;;9.80;99.90;;;;;;5055896;28;20472;-64
2022/05/03 09:44:55;;;;;;;0.60;0.50;;;9.80;99.90;;;;;;5062496;28;20574;-64
2022/05/03 09:47:27;;;;;;;1.37;0.60;;;9.80;99.90;;;;;;5061843;28;20452;-64
2022/05/03 09:49:58;;;;;;;1.47;0.50;;;9.70;99.90;;;;;;5061499;28;20470;-64
2022/05/03 09:52:30;;;;;;;0.93;0.73;;;9.70;99.90;;;;;;5061737;28;20488;-64
2022/05/03 09:55:05;;;;;;;0.63;0.33;;;9.80;99.90;;;;;;5059918;28;20475;-63
2022/05/03 09:57:36;;;;;;;0.90;0.67;;;9.70;99.90;;;;;;5061647;28;20464;-64
2022/05/03 10:00:12;;;;;;;2.93;0.40;;;9.80;99.90;;;;;;5060829;28;20480;-64
2022/05/03 10:02:45;;;;;;;1.30;0.50;;;9.80;99.90;;;;;;5059021;28;20464;-64
2022/05/03 10:05:20;;;;;;;1.13;0.40;;;9.80;99.90;;;;;;5055448;28;20555;-64
2022/05/03 10:07:51;;;;;;;3.73;0.70;;;9.80;99.90;;;;;;5050916;28;20465;-64
2022/05/03 10:10:24;;;;;;;0.73;0.50;;;9.80;99.90;;;;;;5060679;28;20468;-64
2022/05/03 10:12:55;;;;;;;1.53;0.70;;;9.90;99.90;;;;;;5060595;28;20480;-64
2022/05/03 10:21:13;;;;;;;2.13;0.60;;;9.90;99.90;;;;;;5015389;28;20457;-64
2022/05/03 10:24:01;;;;;;;0.90;0.53;;;9.90;99.90;;;;;;5061285;28;20456;-64
2022/05/03 10:26:55;;;;;;;3.10;1.00;;;9.90;99.90;;;;;;5056493;28;20484;-64
2022/05/03 10:29:26;;;;;;;1.05;0.60;;;9.90;99.90;;;;;;5060315;28;20464;-64
2022/05/03 10:32:02;;;;;;;0.63;0.63;;;9.90;99.90;;;;;;5060668;28;20213;-64
2022/05/03 10:34:52;;;;;;;1.43;0.60;;;9.90;99.90;;;;;;5060515;28;20526;-64
2022/05/03 10:38:04;;;;;;;0.73;0.73;;;9.90;99.90;;;;;;5060292;28;20464;-64
2022/05/03 10:40:39;;;;;;;1.77;0.60;;;9.90;99.90;;;;;;5060561;28;20475;-64
2022/05/03 10:43:15;;;;;;;1.07;0.40;;;10.00;99.90;;;;;;5056780;28;20464;-64
2022/05/03 10:45:56;;;;;;;0.90;0.60;;;10.00;99.90;;;;;;5060825;28;20460;-64
2022/05/03 10:48:30;;;;;;;1.43;0.40;;;10.00;99.90;;;;;;5055856;28;20827;-64
2022/05/03 10:51:03;;;;;;;2.10;0.50;;;10.00;99.90;;;;;;5061049;28;20520;-64
2022/05/03 10:53:36;;;;;;;0.60;0.60;;;9.90;99.90;;;;;;5060037;28;20496;-64
2022/05/03 10:56:20;;;;;;;3.30;0.60;;;10.00;99.90;;;;;;5060600;28;20468;-64
2022/05/03 10:59:14;;;;;;;0.50;0.40;;;9.90;99.90;;;;;;5059402;28;20866;-64
2022/05/03 11:02:09;;;;;;;2.03;0.63;;;9.90;99.90;;;;;;5060675;28;20476;-64
2022/05/03 11:05:22;;;;;;;1.57;0.60;;;9.90;99.90;;;;;;5061131;28;20236;-64
2022/05/03 11:08:19;;;;;;;1.97;0.80;;;9.90;99.90;;;;;;5049925;28;20472;-64
2022/05/03 11:10:51;;;;;;;0.50;0.40;;;10.00;99.90;;;;;;5060523;28;20502;-64
2022/05/03 11:13:40;;;;;;;0.50;0.40;;;9.90;99.90;;;;;;5060197;28;20492;-64
2022/05/03 11:16:26;;;;;;;1.33;0.50;;;9.80;99.90;;;;;;5061654;28;20496;-63
2022/05/03 11:18:57;;;;;;;1.17;0.40;;;9.90;99.90;;;;;;5065028;28;20506;-63
2022/05/03 11:21:27;;;;;;;0.70;0.60;;;9.80;99.90;;;;;;5061013;28;20459;-63
2022/05/03 11:24:00;;;;;;;0.63;0.50;;;9.80;99.90;;;;;;5063729;28;20466;-63
2022/05/03 11:26:31;;;;;;;0.60;0.50;;;9.90;99.90;;;;;;5064913;28;20464;-62
2022/05/03 11:29:04;;;;;;;0.40;0.40;;;9.90;99.90;;;;;;5063987;28;20459;-62
2022/05/03 11:31:35;;;;;;;0.80;0.40;;;9.90;99.90;;;;;;5064295;28;20460;-63
2022/05/03 11:34:06;;;;;;;2.13;0.83;;;9.90;99.90;;;;;;5064646;28;20586;-62
2022/05/03 11:36:38;;;;;;;0.53;0.40;;;9.90;99.90;;;;;;5062956;28;20479;-63
2022/05/03 11:39:12;;;;;;;0.93;0.40;;;9.90;99.90;;;;;;5063616;28;20535;-63
2022/05/03 11:41:44;;;;;;;0.77;0.57;;;9.90;99.90;;;;;;5063977;28;20498;-63
2022/05/03 11:44:16;;;;;;;0.60;0.50;;;9.90;99.90;;;;;;5064709;28;20456;-63
2022/05/03 11:46:49;;;;;;;2.20;0.60;;;9.90;99.90;;;;;;5053718;28;20479;-63
2022/05/03 11:49:20;;;;;;;3.70;0.77;;;9.80;99.90;;;;;;5063677;28;20471;-63
2022/05/03 11:57:35;;;;;;;1.37;0.90;;;9.80;99.90;;;;;;5063749;28;20460;-63
2022/05/03 12:00:11;;;;;;;0.80;0.53;;;9.90;99.90;;;;;;5064453;28;20875;-63
2022/05/03 12:02:44;;;;;;;2.03;0.60;;;9.80;99.90;;;;;;5064145;28;20502;-63
2022/05/03 12:05:17;;;;;;;1.77;0.40;;;9.70;99.90;;;;;;5063558;28;20558;-63
2022/05/03 12:07:51;;;;;;;0.63;0.40;;;9.70;99.90;;;;;;5062703;28;20593;-63
2022/05/03 12:10:28;;;;;;;0.70;0.60;;;9.60;99.90;;;;;;5062898;28;20495;-63
2022/05/03 12:13:10;;;;;;;0.80;0.60;;;9.60;99.90;;;;;;5063475;28;20463;-63
2022/05/03 12:15:43;;;;;;;0.77;0.30;;;9.60;99.90;;;;;;5064497;28;20997;-63
2022/05/03 12:18:17;;;;;;;0.60;0.60;;;9.70;99.90;;;;;;5064471;28;20461;-63
2022/05/03 12:20:50;;;;;;;0.73;0.47;;;9.70;99.90;;;;;;5065085;28;20467;-63
2022/05/03 12:23:23;;;;;;;0.50;0.50;;;9.70;99.90;;;;;;5063179;28;20506;-63
2022/05/03 12:25:56;;;;;;;0.60;0.60;;;9.70;99.90;;;;;;5064734;28;20448;-63
2022/05/03 12:28:37;;;;;;;0.30;0.30;;;9.70;99.90;;;;;;5063072;28;20460;-63
2022/05/03 12:31:10;;;;;;;1.00;0.80;;;9.80;99.90;;;;;;5063579;28;20526;-63
2022/05/03 12:33:42;;;;;;;2.50;0.67;;;9.70;99.90;;;;;;5062883;28;20462;-63
2022/05/03 12:36:27;;;;;;;1.53;0.43;;;9.80;99.90;;;;;;5063012;28;20460;-63
2022/05/03 12:38:58;;;;;;;0.50;0.40;;;9.70;99.90;;;;;;5061027;28;20482;-63
2022/05/03 12:41:31;;;;;;;1.00;0.60;;;9.70;99.90;;;;;;5059659;28;20458;-63
2022/05/03 12:44:03;;;;;;;0.57;0.50;;;9.70;99.90;;;;;;5062473;28;20457;-63
2022/05/03 12:46:34;;;;;;;1.10;0.53;;;9.70;99.90;;;;;;5063114;28;20464;-63
2022/05/03 12:49:06;;;;;;;0.60;0.60;;;9.70;99.90;;;;;;5063123;28;20968;-62
2022/05/03 12:51:37;;;;;;;1.13;0.40;;;9.70;99.90;;;;;;5061106;28;20483;-63
2022/05/03 12:54:09;;;;;;;1.10;0.70;;;9.70;99.90;;;;;;5065594;28;20491;-63
2022/05/03 12:59:31;;;;;;;3.90;0.73;;;9.70;99.90;;;;;;5064485;28;20455;-63
2022/05/03 13:02:02;;;;;;;0.93;0.80;;;9.70;99.90;;;;;;5062950;28;20560;-63
2022/05/03 13:04:32;;;;;;;1.20;0.50;;;9.70;99.90;;;;;;5063596;28;20506;-63
2022/05/03 13:07:03;;;;;;;0.77;0.50;;;9.70;99.90;;;;;;5062182;28;20478;-63
2022/05/03 13:09:34;;;;;;;0.73;0.60;;;9.80;99.90;;;;;;5058902;28;20464;-63
2022/05/03 13:12:09;;;;;;;0.60;0.50;;;9.70;99.90;;;;;;5063096;28;21990;-63
2022/05/03 13:14:40;;;;;;;0.57;0.30;;;9.70;99.90;;;;;;5063223;28;20510;-63
2022/05/03 13:17:10;;;;;;;0.80;0.50;;;9.70;99.90;;;;;;5063279;28;20463;-63
2022/05/03 13:19:41;;;;;;;1.27;0.50;;;9.80;99.90;;;;;;5061331;28;20534;-63
2022/05/03 13:22:12;;;;;;;0.43;0.30;;;9.70;99.90;;;;;;5061733;28;20464;-63
2022/05/03 13:24:43;;;;;;;0.50;0.50;;;9.80;99.90;;;;;;5061944;28;20460;-63
2022/05/03 13:27:15;;;;;;;1.37;0.57;;;9.80;99.90;;;;;;5062805;28;20460;-63
2022/05/03 13:29:46;;;;;;;0.90;0.83;;;9.80;99.90;;;;;;5062436;28;20444;-63
2022/05/03 13:32:17;;;;;;;1.20;0.50;;;9.90;99.90;;;;;;5062083;28;20478;-63
2022/05/03 13:34:48;;;;;;;0.70;0.70;;;10.00;99.90;;;;;;5062831;28;20520;-63
2022/05/03 13:43:00;;;;;;;0.83;0.53;;;10.10;99.90;;;;;;5045768;28;20473;-64
2022/05/03 13:45:31;;;;;;;1.07;0.70;;;10.10;99.90;;;;;;5062402;28;20457;-63
2022/05/03 13:48:21;;;;;;;1.40;0.50;;;10.10;99.90;;;;;;5062086;28;20444;-63
2022/05/03 13:50:52;;;;;;;1.10;0.50;;;10.20;99.90;;;;;;5062238;28;20467;-63
2022/05/03 13:53:23;;;;;;;2.70;0.60;;;10.10;99.90;;;;;;5060823;28;20467;-63
2022/05/03 13:55:54;;;;;;;1.97;0.83;;;10.10;99.90;;;;;;5061983;28;20492;-63
2022/05/03 13:58:26;;;;;;;0.63;0.57;;;10.20;99.90;;;;;;5061591;28;20472;-63
2022/05/03 14:00:57;;;;;;;1.27;0.60;;;10.30;99.90;;;;;;5059718;28;20556;-63
2022/05/03 14:03:28;;;;;;;1.27;0.70;;;10.30;99.90;;;;;;5059027;28;20555;-64
2022/05/03 14:05:59;;;;;;;0.93;0.60;;;10.30;99.90;;;;;;5062480;28;20459;-64
2022/05/03 14:08:31;;;;;;;1.73;0.90;;;10.40;99.90;;;;;;5059809;28;20486;-64
2022/05/03 14:11:03;;;;;;;1.60;0.70;;;10.40;99.90;;;;;;5059493;28;20460;-64
2022/05/03 14:13:35;;;;;;;0.80;0.63;;;10.50;99.90;;;;;;5060370;28;20460;-63